Time;durP1;ratioP1;P1;durP2;ratioP2;P2;SDS_P1;SDS_P2;PMS_P1;PMS_P2;Temp;Humidity;BMP_temperature;BMP_pressure;BME280_temperature;BME280_humidity;BME280_pressure;Samples;Min_cycle;Max_cycle;Signal;HPM_P1;HPM_P2
2024/02/27 00:04:55;;;;;;;12.05;6.07;;;;;;;7.92;59.63;99295.19;10493236;28;20048;-61
2024/02/27 00:09:58;;;;;;;10.35;5.57;;;;;;;7.93;59.67;99292.53;10512017;28;20072;-61
2024/02/27 00:15:00;;;;;;;12.20;5.47;;;;;;;7.97;59.59;99314.00;10513704;28;20607;-61
2024/02/27 00:20:04;;;;;;;10.25;5.82;;;;;;;7.89;59.71;99313.63;10514659;28;20072;-61
2024/02/27 00:25:06;;;;;;;9.68;5.60;;;;;;;7.95;59.70;99327.13;10513172;28;20048;-61
2024/02/27 00:30:09;;;;;;;13.05;5.82;;;;;;;7.88;59.68;99331.00;10513498;28;20064;-61
2024/02/27 00:35:11;;;;;;;12.75;5.47;;;;;;;7.89;60.00;99348.31;10512653;28;20048;-61
2024/02/27 00:40:13;;;;;;;10.07;5.45;;;;;;;7.94;59.81;99358.44;10496369;28;20094;-61
2024/02/27 00:45:15;;;;;;;9.85;5.07;;;;;;;8.00;59.92;99371.09;10490412;28;20126;-61
2024/02/27 00:50:17;;;;;;;11.43;6.07;;;;;;;8.01;59.80;99376.25;10514021;28;20534;-61
2024/02/27 00:55:19;;;;;;;15.52;5.63;;;;;;;8.03;59.63;99371.78;10529667;28;20080;-61
2024/02/27 01:00:21;;;;;;;11.57;5.68;;;;;;;7.93;60.05;99375.84;10514021;28;20072;-61
2024/02/27 01:05:23;;;;;;;10.27;5.45;;;;;;;8.03;59.97;99376.16;10491515;28;20048;-61
2024/02/27 01:10:26;;;;;;;13.32;5.63;;;;;;;8.06;59.78;99375.13;10518256;28;20192;-61
2024/02/27 01:15:28;;;;;;;11.73;5.72;;;;;;;7.92;60.19;99373.31;10521492;28;20136;-61
2024/02/27 01:20:30;;;;;;;11.70;6.03;;;;;;;7.89;59.99;99376.09;10487597;28;20036;-60
2024/02/27 01:25:32;;;;;;;13.38;5.50;;;;;;;7.86;60.15;99382.31;10520999;28;20067;-61
2024/02/27 01:30:34;;;;;;;16.42;6.43;;;;;;;7.84;60.08;99393.75;10503011;28;20127;-61
2024/02/27 01:35:36;;;;;;;12.45;6.38;;;;;;;7.84;60.20;99397.19;10500469;28;20063;-61
2024/02/27 01:40:38;;;;;;;11.73;5.82;;;;;;;7.93;60.13;99398.44;10520127;28;20504;-61
2024/02/27 01:45:40;;;;;;;11.48;6.05;;;;;;;7.91;60.19;99403.72;10517593;28;20131;-61
2024/02/27 01:50:45;;;;;;;11.45;6.18;;;;;;;7.92;60.13;99412.34;10501192;28;20438;-61
2024/02/27 01:55:48;;;;;;;9.32;5.53;;;;;;;7.88;60.38;99424.72;10518962;28;20080;-61
2024/02/27 02:00:50;;;;;;;11.55;5.97;;;;;;;7.95;60.16;99415.66;10519797;28;20047;-61
2024/02/27 02:05:55;;;;;;;9.52;4.97;;;;;;;7.98;60.01;99415.47;10518361;28;20147;-61
2024/02/27 02:10:58;;;;;;;10.80;5.22;;;;;;;7.91;60.06;99418.50;10518645;28;20272;-61
2024/02/27 02:16:00;;;;;;;8.43;4.70;;;;;;;7.86;60.34;99421.38;10519209;28;20139;-61
2024/02/27 02:21:02;;;;;;;10.85;5.53;;;;;;;7.84;60.45;99412.81;10483741;28;20130;-59
2024/02/27 02:26:05;;;;;;;10.18;5.65;;;;;;;7.72;60.61;99412.66;10517947;28;20496;-60
2024/02/27 02:31:07;;;;;;;10.52;5.53;;;;;;;7.61;60.76;99402.84;10501822;28;20076;-60
2024/02/27 02:36:09;;;;;;;10.50;5.15;;;;;;;7.50;60.86;99407.81;10500122;28;20142;-62
2024/02/27 02:41:11;;;;;;;12.10;5.80;;;;;;;7.37;60.87;99411.16;10518049;28;20523;-59
2024/02/27 02:46:14;;;;;;;14.88;5.65;;;;;;;7.29;60.80;99424.59;10499576;28;20091;-60
2024/02/27 02:51:16;;;;;;;8.30;4.43;;;;;;;7.18;60.60;99419.16;10518228;28;20407;-60
2024/02/27 02:56:18;;;;;;;7.63;4.78;;;;;;;7.16;60.67;99421.00;10500571;28;20052;-59
2024/02/27 03:01:20;;;;;;;7.80;4.70;;;;;;;7.11;60.64;99434.25;10517523;28;20447;-59
2024/02/27 03:06:22;;;;;;;10.45;5.03;;;;;;;7.20;60.39;99438.13;10499049;28;20043;-60
2024/02/27 03:11:24;;;;;;;9.93;4.63;;;;;;;7.12;60.39;99441.09;10499393;28;20058;-60
2024/02/27 03:16:27;;;;;;;7.38;4.40;;;;;;;7.16;60.34;99444.41;10516424;28;20073;-60
2024/02/27 03:21:31;;;;;;;7.90;4.32;;;;;;;7.28;60.02;99441.13;10516435;28;21368;-59
2024/02/27 03:26:34;;;;;;;7.85;4.38;;;;;;;7.17;60.06;99452.09;10499369;28;20314;-60
2024/02/27 03:31:36;;;;;;;9.85;4.65;;;;;;;7.07;59.93;99463.06;10497702;28;20044;-59
2024/02/27 03:36:41;;;;;;;9.48;4.70;;;;;;;7.02;59.93;99473.72;10517007;28;20487;-60
2024/02/27 03:41:43;;;;;;;8.10;4.28;;;;;;;7.01;60.11;99474.66;10515922;28;20468;-59
2024/02/27 03:46:45;;;;;;;7.30;4.28;;;;;;;6.98;60.09;99472.19;10515834;28;20032;-61
2024/02/27 03:51:47;;;;;;;7.65;4.25;;;;;;;6.90;60.37;99478.72;10515526;28;20127;-60
2024/02/27 03:56:49;;;;;;;8.20;4.47;;;;;;;6.83;60.18;99483.41;10515337;28;20492;-59
2024/02/27 04:01:51;;;;;;;9.93;4.55;;;;;;;6.75;60.30;99495.09;10514660;28;20126;-59
2024/02/27 04:06:53;;;;;;;9.73;4.68;;;;;;;6.74;60.41;99496.00;10515321;28;20613;-59
2024/02/27 04:11:55;;;;;;;10.73;4.55;;;;;;;6.86;60.40;99506.63;10514309;28;20047;-59
2024/02/27 04:16:57;;;;;;;11.55;4.00;;;;;;;6.91;60.29;99522.00;10498087;28;20138;-60
2024/02/27 04:21:59;;;;;;;6.78;3.75;;;;;;;7.00;60.09;99521.50;10513255;28;20380;-59
2024/02/27 04:27:02;;;;;;;8.50;4.65;;;;;;;6.91;59.95;99520.25;10530373;28;20054;-60
2024/02/27 04:32:06;;;;;;;9.52;4.65;;;;;;;7.00;59.94;99514.56;10496115;28;20404;-60
2024/02/27 04:37:09;;;;;;;8.48;4.53;;;;;;;7.07;59.93;99518.53;10515276;28;20164;-62
2024/02/27 04:42:11;;;;;;;12.45;5.15;;;;;;;7.14;59.74;99530.28;10516516;28;20051;-59
2024/02/27 04:47:13;;;;;;;7.65;4.05;;;;;;;7.15;59.70;99526.75;10523334;28;20054;-60
2024/02/27 04:52:15;;;;;;;10.77;5.05;;;;;;;7.16;59.58;99531.03;10522659;28;20688;-60
2024/02/27 04:57:17;;;;;;;7.55;4.15;;;;;;;7.13;59.81;99544.22;10505170;28;20376;-60
2024/02/27 05:02:20;;;;;;;7.82;4.28;;;;;;;7.10;60.03;99546.13;10521413;28;20049;-59
2024/02/27 05:07:22;;;;;;;7.60;4.22;;;;;;;7.07;60.17;99549.72;10503834;28;20155;-60
2024/02/27 05:12:24;;;;;;;10.48;4.78;;;;;;;7.00;59.82;99555.28;10503308;28;20047;-59
2024/02/27 05:17:26;;;;;;;12.10;4.63;;;;;;;7.08;59.94;99572.19;10519457;28;20050;-59
2024/02/27 05:22:28;;;;;;;9.90;4.40;;;;;;;7.04;59.67;99570.66;10503519;28;20035;-60
2024/02/27 05:27:30;;;;;;;8.50;4.75;;;;;;;6.98;59.88;99567.53;10521594;28;20127;-60
2024/02/27 05:32:33;;;;;;;9.32;4.80;;;;;;;7.01;59.92;99572.59;10521024;28;20044;-60
2024/02/27 05:37:35;;;;;;;11.95;4.85;;;;;;;7.00;59.89;99571.75;10502847;28;20495;-61
2024/02/27 05:42:37;;;;;;;8.68;4.35;;;;;;;6.94;59.81;99584.22;10521411;28;20044;-61
2024/02/27 05:47:39;;;;;;;10.45;5.20;;;;;;;6.90;59.80;99593.06;10520684;28;20316;-61
2024/02/27 05:52:41;;;;;;;10.13;5.07;;;;;;;6.98;59.93;99601.34;10520361;28;20138;-62
2024/02/27 05:57:44;;;;;;;9.48;4.47;;;;;;;6.93;60.02;99605.94;10535489;27;20048;-61
2024/02/27 06:02:46;;;;;;;9.00;4.57;;;;;;;6.95;59.93;99617.09;10520572;28;20032;-63
2024/02/27 06:07:51;;;;;;;8.70;4.30;;;;;;;6.98;59.85;99632.53;10502274;28;20055;-61
2024/02/27 06:12:53;;;;;;;10.70;4.80;;;;;;;7.02;59.72;99647.09;10520461;28;20040;-61
2024/02/27 06:17:55;;;;;;;8.32;4.63;;;;;;;7.03;59.83;99656.56;10519222;28;20055;-61
2024/02/27 06:22:57;;;;;;;10.60;4.60;;;;;;;7.21;59.41;99666.03;10502205;28;20101;-61
2024/02/27 06:27:59;;;;;;;10.80;5.22;;;;;;;7.09;59.60;99669.25;10519288;28;20127;-61
2024/02/27 06:33:01;;;;;;;8.98;5.07;;;;;;;7.10;59.49;99678.75;10484587;28;20140;-61
2024/02/27 06:38:04;;;;;;;10.05;5.05;;;;;;;7.05;59.68;99667.72;10517645;28;20389;-61
2024/02/27 06:43:06;;;;;;;11.07;6.05;;;;;;;7.10;59.66;99678.75;10518552;28;20105;-61
2024/02/27 06:48:10;;;;;;;9.80;4.85;;;;;;;7.08;59.49;99686.59;10518122;28;20040;-61
2024/02/27 06:53:12;;;;;;;9.30;4.53;;;;;;;7.11;59.76;99696.03;10518343;28;20047;-61
2024/02/27 06:58:16;;;;;;;8.77;5.30;;;;;;;7.20;59.46;99701.59;10500068;28;20052;-62
2024/02/27 07:03:18;;;;;;;7.75;4.55;;;;;;;7.22;59.43;99704.16;10501000;28;20496;-61
2024/02/27 07:08:20;;;;;;;12.55;5.25;;;;;;;7.32;59.33;99694.97;10517069;28;20581;-61
2024/02/27 07:13:22;;;;;;;9.98;5.50;;;;;;;7.36;59.09;99704.31;10499025;28;20044;-62
2024/02/27 07:18:24;;;;;;;9.98;4.75;;;;;;;7.54;58.90;99711.19;10517327;28;20063;-62
2024/02/27 07:23:27;;;;;;;10.05;5.13;;;;;;;7.63;58.55;99700.28;10516507;28;20044;-61
2024/02/27 07:28:29;;;;;;;11.05;4.70;;;;;;;7.64;58.60;99709.78;10517322;28;20054;-61
2024/02/27 07:33:34;;;;;;;8.70;4.97;;;;;;;7.80;58.56;99717.63;10515277;28;20122;-61
2024/02/27 07:38:37;;;;;;;13.63;4.50;;;;;;;7.97;58.29;99722.81;10516218;28;20055;-61
2024/02/27 07:43:39;;;;;;;10.70;4.40;;;;;;;8.13;58.06;99721.13;10515532;28;20032;-61
2024/02/27 07:48:47;;;;;;;8.23;4.72;;;;;;;8.34;57.37;99729.56;10525996;27;20704;-61
2024/02/27 07:53:51;;;;;;;12.00;5.60;;;;;;;8.41;57.61;99741.31;10509035;28;20044;-61
2024/02/27 07:58:57;;;;;;;9.65;4.78;;;;;;;8.33;57.46;99754.75;10508305;28;20072;-61
2024/02/27 08:03:59;;;;;;;9.35;4.68;;;;;;;8.11;57.64;99767.25;10506873;28;20062;-61
2024/02/27 08:09:01;;;;;;;11.38;5.00;;;;;;;8.13;57.64;99767.16;10490058;28;20075;-61
2024/02/27 08:14:04;;;;;;;10.05;5.10;;;;;;;8.26;57.51;99779.44;10503128;28;20694;-61
2024/02/27 08:19:07;;;;;;;9.23;4.63;;;;;;;8.32;57.39;99778.31;10507936;28;20048;-61
2024/02/27 08:24:12;;;;;;;9.48;5.05;;;;;;;8.29;57.26;99784.50;10505195;28;20044;-61
2024/02/27 08:29:14;;;;;;;8.50;4.53;;;;;;;8.40;57.16;99786.56;10492721;28;20054;-61
2024/02/27 08:34:18;;;;;;;7.70;3.95;;;;;;;8.44;56.86;99791.53;10509548;28;20420;-61
2024/02/27 08:39:21;;;;;;;9.65;3.65;;;;;;;8.36;56.87;99780.69;10510261;28;20036;-61
2024/02/27 08:44:23;;;;;;;8.75;3.92;;;;;;;8.63;56.65;99776.56;10508981;28;20040;-61
2024/02/27 08:49:25;;;;;;;8.05;4.15;;;;;;;9.49;55.23;99752.56;10493021;28;20048;-61
2024/02/27 08:54:28;;;;;;;8.95;4.22;;;;;;;9.26;55.10;99753.88;10508567;28;20089;-61
2024/02/27 08:59:30;;;;;;;8.30;3.72;;;;;;;9.57;54.93;99748.59;10506903;28;20051;-61
2024/02/27 09:04:32;;;;;;;6.65;3.47;;;;;;;9.69;54.59;99751.44;10506279;28;20044;-61
2024/02/27 09:09:34;;;;;;;8.95;3.92;;;;;;;9.43;54.49;99758.13;10507293;28;20429;-61
2024/02/27 09:14:37;;;;;;;7.38;3.55;;;;;;;9.48;54.65;99749.09;10505102;28;20059;-61
2024/02/27 09:19:39;;;;;;;5.97;3.53;;;;;;;9.76;54.13;99739.69;10472569;28;20068;-62
2024/02/27 09:24:42;;;;;;;7.53;3.35;;;;;;;10.13;53.26;99726.97;10503069;28;20044;-61
2024/02/27 09:29:46;;;;;;;6.10;3.70;;;;;;;10.16;52.80;99731.13;10489315;28;20211;-61
2024/02/27 09:34:55;;;;;;;;;;;;;;;10.16;51.47;99736.34;10516024;28;20086;-55
2024/02/27 09:39:57;;;;;;;6.05;3.08;;;;;;;10.36;52.27;99735.97;10516342;28;19924;-56
2024/02/27 09:45:05;;;;;;;8.63;4.10;;;;;;;10.53;52.19;99735.78;10514851;28;20128;-57
2024/02/27 09:50:09;;;;;;;7.72;3.45;;;;;;;10.35;51.47;99734.31;10499421;28;20079;-54
2024/02/27 09:55:12;;;;;;;6.55;3.65;;;;;;;10.41;50.01;99732.16;10514721;28;20166;-53
2024/02/27 10:00:18;;;;;;;8.52;4.18;;;;;;;10.44;50.92;99739.78;10515396;28;20044;-52
2024/02/27 10:05:22;;;;;;;7.03;3.92;;;;;;;10.58;51.71;99749.41;10514920;28;20519;-52
2024/02/27 10:10:24;;;;;;;7.38;4.07;;;;;;;10.50;50.44;99744.66;10509248;28;20442;-53
2024/02/27 10:15:27;;;;;;;6.40;3.55;;;;;;;10.60;50.79;99737.09;10493501;28;20166;-55
2024/02/27 10:20:30;;;;;;;6.45;3.67;;;;;;;10.70;50.72;99735.56;10507401;28;20047;-56
2024/02/27 10:25:34;;;;;;;6.07;3.20;;;;;;;10.75;50.73;99736.09;10513229;28;20093;-54
2024/02/27 10:30:37;;;;;;;8.23;3.35;;;;;;;10.72;50.74;99741.53;10509662;28;20131;-51
2024/02/27 10:35:42;;;;;;;8.60;3.42;;;;;;;11.05;50.75;99743.81;10508273;28;20040;-53
2024/02/27 10:40:47;;;;;;;5.40;3.10;;;;;;;11.37;50.13;99739.94;10507409;28;20127;-54
2024/02/27 10:45:49;;;;;;;9.20;4.38;;;;;;;11.56;49.63;99755.28;10508051;28;20135;-52
2024/02/27 10:50:51;;;;;;;5.78;3.15;;;;;;;11.27;48.17;99758.00;10508880;28;20044;-54
2024/02/27 10:55:55;;;;;;;7.00;3.42;;;;;;;11.14;49.69;99754.53;10506874;28;20101;-55
2024/02/27 11:00:57;;;;;;;7.38;3.13;;;;;;;11.21;49.80;99754.97;10527766;27;20035;-52
2024/02/27 11:06:00;;;;;;;5.35;3.03;;;;;;;11.30;48.71;99752.56;10510997;28;20644;-55
2024/02/27 11:11:03;;;;;;;5.40;2.40;;;;;;;11.19;49.16;99768.13;10510165;28;20101;-52
2024/02/27 11:16:08;;;;;;;6.22;2.63;;;;;;;10.84;49.28;99769.53;10492804;28;20486;-54
2024/02/27 11:21:10;;;;;;;5.25;2.92;;;;;;;10.96;49.15;99766.13;10494505;28;20178;-54
2024/02/27 11:26:13;;;;;;;8.10;2.97;;;;;;;10.85;49.21;99765.97;10510486;28;20054;-53
2024/02/27 11:31:18;;;;;;;9.80;3.30;;;;;;;10.99;48.28;99763.31;10506593;28;20297;-55
2024/02/27 11:36:21;;;;;;;4.13;2.50;;;;;;;11.03;48.80;99758.75;10507917;28;20518;-52
2024/02/27 11:41:28;;;;;;;7.43;3.45;;;;;;;10.96;48.52;99762.69;10507736;28;20145;-54
2024/02/27 11:46:30;;;;;;;6.55;3.58;;;;;;;11.32;48.45;99762.13;10507889;28;20131;-56
2024/02/27 11:51:36;;;;;;;6.40;3.45;;;;;;;11.32;48.90;99766.41;10488834;28;20050;-55
2024/02/27 11:56:42;;;;;;;6.07;2.95;;;;;;;11.40;48.38;99762.47;10507694;28;20590;-53
2024/02/27 12:02:00;;;;;;;5.47;2.90;;;;;;;11.66;47.38;99761.56;10504761;28;20040;-54
2024/02/27 12:07:03;;;;;;;4.18;2.55;;;;;;;11.61;47.13;99761.88;10476528;28;20052;-54
2024/02/27 12:12:05;;;;;;;5.28;2.60;;;;;;;11.75;47.28;99745.22;10504179;28;20058;-53
2024/02/27 12:17:09;;;;;;;6.05;2.42;;;;;;;11.87;47.06;99745.22;10505010;28;20206;-51
2024/02/27 12:22:12;;;;;;;4.60;2.50;;;;;;;11.99;46.76;99739.16;10505642;28;20040;-54
2024/02/27 12:27:15;;;;;;;5.10;2.53;;;;;;;12.11;46.87;99737.47;10506623;28;20506;-52
2024/02/27 12:32:17;;;;;;;5.38;2.50;;;;;;;11.94;46.30;99729.94;10507644;28;20063;-52
2024/02/27 12:37:19;;;;;;;5.30;2.30;;;;;;;12.08;46.45;99717.56;10506732;28;20079;-51
2024/02/27 12:42:21;;;;;;;4.63;2.63;;;;;;;12.05;45.95;99717.75;10503576;28;20466;-53
2024/02/27 12:47:25;;;;;;;5.95;2.80;;;;;;;12.09;45.77;99707.91;10488037;28;20048;-53
2024/02/27 12:52:27;;;;;;;5.60;2.92;;;;;;;12.24;45.69;99719.09;10521971;28;20574;-55
2024/02/27 12:57:30;;;;;;;5.05;2.65;;;;;;;12.22;45.64;99698.25;10502560;28;20158;-53
2024/02/27 13:02:32;;;;;;;6.68;2.50;;;;;;;12.44;45.75;99698.44;10488099;28;20488;-53
2024/02/27 13:07:39;;;;;;;6.07;2.58;;;;;;;12.47;44.67;99684.28;10496018;28;20161;-54
2024/02/27 13:12:42;;;;;;;4.95;2.60;;;;;;;12.62;45.28;99672.69;10514418;28;20363;-52
2024/02/27 13:17:45;;;;;;;6.72;3.40;;;;;;;12.52;45.50;99664.63;10495453;28;20047;-54
2024/02/27 13:22:47;;;;;;;5.85;2.60;;;;;;;12.36;45.34;99661.44;10496791;28;20644;-51
2024/02/27 13:27:54;;;;;;;5.00;2.72;;;;;;;12.56;45.01;99666.06;10513677;28;20500;-52
2024/02/27 13:32:57;;;;;;;4.35;2.30;;;;;;;12.55;44.81;99671.44;10514472;28;20076;-53
2024/02/27 13:37:59;;;;;;;5.25;2.78;;;;;;;12.48;44.97;99668.41;10515822;28;20058;-50
2024/02/27 13:43:02;;;;;;;9.70;3.13;;;;;;;12.23;44.81;99671.09;10512607;28;20620;-50
2024/02/27 13:48:05;;;;;;;5.28;2.00;;;;;;;12.16;44.24;99672.47;10516359;28;20048;-51
2024/02/27 13:53:11;;;;;;;4.75;2.30;;;;;;;12.01;44.48;99669.13;10515035;28;20052;-51
2024/02/27 13:58:14;;;;;;;3.85;2.28;;;;;;;12.31;44.50;99658.31;10514753;28;20044;-53
2024/02/27 14:03:16;;;;;;;4.53;2.17;;;;;;;12.60;44.52;99648.34;10515072;28;20476;-52
2024/02/27 14:08:18;;;;;;;4.90;2.38;;;;;;;12.88;44.84;99651.44;10512914;28;20052;-52
2024/02/27 14:13:21;;;;;;;3.35;2.13;;;;;;;12.72;44.34;99653.53;10496741;28;20557;-49
2024/02/27 14:18:25;;;;;;;5.22;2.03;;;;;;;12.55;43.01;99651.31;10513722;28;20052;-53
2024/02/27 14:23:31;;;;;;;3.70;2.10;;;;;;;12.68;43.74;99654.69;10529195;27;20040;-54
2024/02/27 14:28:33;;;;;;;5.15;2.50;;;;;;;12.72;43.31;99656.16;10513989;28;20629;-55
2024/02/27 14:33:35;;;;;;;3.80;1.98;;;;;;;12.78;43.73;99655.69;10512241;28;20188;-55
2024/02/27 14:38:40;;;;;;;6.38;2.53;;;;;;;12.79;43.50;99660.00;10513576;28;20048;-54
2024/02/27 14:43:42;;;;;;;3.78;2.38;;;;;;;12.71;44.26;99658.88;10526948;27;20036;-53
2024/02/27 14:48:47;;;;;;;4.38;2.63;;;;;;;12.88;44.08;99654.06;10493250;28;20048;-55
2024/02/27 14:53:49;;;;;;;4.78;2.08;;;;;;;12.81;43.53;99665.13;10509651;28;20293;-52
2024/02/27 14:58:51;;;;;;;7.40;2.70;;;;;;;12.73;43.58;99668.34;10508575;28;20056;-53
2024/02/27 15:03:56;;;;;;;5.45;2.28;;;;;;;12.48;44.30;99673.66;10506229;28;20130;-53
2024/02/27 15:08:58;;;;;;;12.43;4.60;;;;;;;12.61;44.46;99671.84;10476755;28;20419;-50
2024/02/27 15:14:02;;;;;;;3.83;2.10;;;;;;;12.62;44.14;99673.50;10492285;28;20052;-50
2024/02/27 15:19:05;;;;;;;4.25;2.28;;;;;;;12.42;43.64;99668.84;10513143;28;20063;-53
2024/02/27 15:24:07;;;;;;;4.78;2.33;;;;;;;12.44;44.50;99664.34;10511199;28;20038;-49
2024/02/27 15:29:11;;;;;;;4.43;2.33;;;;;;;12.27;44.63;99675.19;10509281;28;20146;-51
2024/02/27 15:34:13;;;;;;;4.70;2.45;;;;;;;12.06;44.96;99674.91;10493077;28;20055;-53
2024/02/27 15:39:15;;;;;;;4.50;2.45;;;;;;;11.76;45.38;99682.25;10509695;28;20097;-53
2024/02/27 15:44:17;;;;;;;4.30;2.22;;;;;;;11.66;45.50;99688.22;10491938;28;20416;-54
2024/02/27 15:49:22;;;;;;;4.38;2.40;;;;;;;11.63;45.38;99688.41;10492967;28;20424;-50
2024/02/27 15:54:25;;;;;;;4.30;2.45;;;;;;;11.64;45.58;99688.31;10510780;28;20047;-51
2024/02/27 15:59:27;;;;;;;4.18;2.45;;;;;;;11.52;45.56;99688.31;10525438;27;20059;-49
2024/02/27 16:04:52;;;;;;;5.40;2.80;;;;;;;11.38;45.93;99706.75;10509645;28;20055;-51
2024/02/27 16:09:54;;;;;;;5.63;2.70;;;;;;;11.20;46.02;99706.16;10491988;28;20055;-55
2024/02/27 16:14:56;;;;;;;5.00;2.67;;;;;;;10.87;46.59;99714.38;10508110;28;20522;-52
2024/02/27 16:19:59;;;;;;;8.18;2.40;;;;;;;10.65;47.04;99719.31;10487606;28;20121;-52
2024/02/27 16:25:02;;;;;;;5.50;2.78;;;;;;;10.52;47.24;99728.88;10505575;28;20048;-50
2024/02/27 16:30:06;;;;;;;4.88;2.80;;;;;;;10.32;47.96;99732.72;10505677;28;20036;-49
2024/02/27 16:35:10;;;;;;;5.57;3.03;;;;;;;10.11;48.28;99749.72;10505853;28;20417;-53
2024/02/27 16:40:14;;;;;;;4.22;2.40;;;;;;;10.12;48.41;99759.22;10459397;28;20055;-52
2024/02/27 16:45:16;;;;;;;6.38;2.88;;;;;;;10.05;48.15;99759.72;10512037;28;20051;-55
2024/02/27 16:50:18;;;;;;;4.30;2.40;;;;;;;9.83;48.57;99791.47;10517502;28;20044;-50
2024/02/27 16:55:21;;;;;;;5.47;2.75;;;;;;;9.79;48.76;99799.59;10514402;28;20046;-54
2024/02/27 17:00:23;;;;;;;4.45;2.45;;;;;;;9.62;49.07;99806.63;10517652;28;20127;-50
2024/02/27 17:05:26;;;;;;;4.57;2.60;;;;;;;9.50;49.36;99817.72;10516624;28;20472;-51
2024/02/27 17:10:29;;;;;;;5.53;2.95;;;;;;;9.33;49.77;99817.88;10498305;28;20462;-52
2024/02/27 17:15:31;;;;;;;4.47;2.60;;;;;;;9.26;49.82;99816.50;10517014;28;20051;-49
2024/02/27 17:20:33;;;;;;;5.25;2.70;;;;;;;9.18;50.10;99823.94;10514613;28;20106;-50
2024/02/27 17:25:39;;;;;;;9.68;2.88;;;;;;;8.99;50.33;99844.16;10515992;28;20138;-51
2024/02/27 17:30:42;;;;;;;6.03;2.90;;;;;;;8.98;50.31;99852.88;10496642;28;20494;-53
2024/02/27 17:35:44;;;;;;;6.32;2.90;;;;;;;8.85;50.78;99859.72;10513264;28;20700;-54
2024/02/27 17:40:46;;;;;;;5.50;2.83;;;;;;;8.70;51.15;99874.41;10494719;28;20043;-58
2024/02/27 17:45:50;;;;;;;6.22;2.58;;;;;;;8.55;51.47;99875.19;10509565;28;20124;-59
2024/02/27 17:50:52;;;;;;;5.22;2.60;;;;;;;8.49;51.77;99892.91;10511342;28;20050;-58
2024/02/27 17:55:54;;;;;;;6.25;2.67;;;;;;;8.33;52.25;99898.06;10514649;28;20044;-58
2024/02/27 18:00:56;;;;;;;5.28;3.20;;;;;;;8.16;52.70;99902.47;10514626;28;20112;-58
2024/02/27 18:05:58;;;;;;;6.38;3.10;;;;;;;8.01;53.42;99902.28;10512236;28;20048;-58
2024/02/27 18:11:01;;;;;;;6.68;3.88;;;;;;;7.84;53.88;99923.09;10513386;28;20055;-59
2024/02/27 18:16:03;;;;;;;9.07;4.28;;;;;;;7.76;54.43;99925.22;10514565;28;20390;-58
2024/02/27 18:21:05;;;;;;;9.77;5.20;;;;;;;7.76;54.83;99929.56;10496350;28;20052;-59
2024/02/27 18:26:07;;;;;;;11.02;5.30;;;;;;;7.61;55.43;99928.53;10495906;28;20079;-59
2024/02/27 18:31:21;;;;;;;8.38;5.30;;;;;;;7.57;56.48;99934.81;10513547;28;20046;-59
2024/02/27 18:36:23;;;;;;;8.77;4.82;;;;;;;7.60;55.94;99936.44;10514035;28;20048;-59
2024/02/27 18:41:25;;;;;;;9.70;5.47;;;;;;;7.53;56.37;99941.06;10513507;28;20047;-58
2024/02/27 18:46:27;;;;;;;16.25;7.10;;;;;;;7.52;56.51;99944.63;10528805;27;20361;-59
2024/02/27 18:51:29;;;;;;;10.30;5.78;;;;;;;7.53;56.58;99953.28;10511585;28;20055;-59
2024/02/27 18:56:31;;;;;;;9.90;5.50;;;;;;;7.45;56.60;99965.78;10511884;28;20044;-58
2024/02/27 19:01:34;;;;;;;14.68;6.72;;;;;;;7.40;56.88;99972.97;10508801;28;20047;-58
2024/02/27 19:06:46;;;;;;;11.27;6.07;;;;;;;7.36;58.06;99969.66;10509948;28;20051;-58
2024/02/27 19:11:49;;;;;;;11.45;6.03;;;;;;;7.11;57.43;99980.31;10505654;28;20093;-59
2024/02/27 19:16:52;;;;;;;18.80;7.18;;;;;;;7.09;57.74;99983.91;10507670;28;20051;-58
2024/02/27 19:21:55;;;;;;;12.38;6.53;;;;;;;7.11;57.55;99997.69;10509754;28;20396;-59
2024/02/27 19:26:57;;;;;;;13.02;7.03;;;;;;;7.04;57.74;99998.88;10508041;28;20042;-58
2024/02/27 19:31:59;;;;;;;16.08;7.60;;;;;;;6.86;58.66;100002.25;10507704;28;20128;-59
2024/02/27 19:37:01;;;;;;;15.13;6.80;;;;;;;6.77;58.76;100005.28;10506050;28;20123;-59
2024/02/27 19:42:04;;;;;;;14.18;7.28;;;;;;;6.78;58.53;100009.53;10489513;28;20589;-58
2024/02/27 19:47:06;;;;;;;16.85;7.00;;;;;;;6.64;58.92;100012.75;10506554;28;20052;-59
2024/02/27 19:52:11;;;;;;;13.73;7.30;;;;;;;6.54;59.09;100008.00;10508260;28;20411;-59
2024/02/27 19:57:13;;;;;;;15.20;7.68;;;;;;;6.48;59.16;100014.31;10506927;28;20478;-58
2024/02/27 20:02:15;;;;;;;16.48;8.10;;;;;;;6.46;59.13;100025.66;10508277;28;20036;-59
2024/02/27 20:07:19;;;;;;;14.98;7.80;;;;;;;6.38;59.34;100030.31;10490174;28;20047;-59
2024/02/27 20:12:22;;;;;;;15.77;7.70;;;;;;;6.21;59.59;100042.22;10504145;28;20044;-58
2024/02/27 20:17:24;;;;;;;15.48;8.30;;;;;;;6.20;59.60;100037.94;10490578;28;20044;-58
2024/02/27 20:22:27;;;;;;;14.70;7.95;;;;;;;6.14;59.76;100043.34;10488579;28;21343;-58
2024/02/27 20:27:30;;;;;;;16.15;7.97;;;;;;;6.08;59.90;100045.38;10507852;28;20594;-57
2024/02/27 20:32:32;;;;;;;14.98;7.30;;;;;;;6.11;59.73;100047.81;10506967;28;20048;-58
2024/02/27 20:37:35;;;;;;;15.63;8.30;;;;;;;5.98;60.03;100046.63;10507006;28;20197;-58
2024/02/27 20:42:42;;;;;;;15.27;8.00;;;;;;;5.86;60.02;100050.53;10489584;28;20404;-58
2024/02/27 20:47:45;;;;;;;13.85;7.55;;;;;;;5.77;60.34;100058.69;10505446;28;20094;-58
2024/02/27 20:52:47;;;;;;;19.63;8.82;;;;;;;5.76;60.23;100066.53;10505146;28;20253;-58
2024/02/27 20:57:53;;;;;;;18.17;7.65;;;;;;;5.65;60.42;100073.88;10488412;28;20396;-58
2024/02/27 21:02:55;;;;;;;18.83;8.80;;;;;;;5.65;60.48;100081.66;10519248;28;20321;-58
2024/02/27 21:07:57;;;;;;;15.85;7.70;;;;;;;5.48;60.56;100080.53;10503050;28;20580;-58
2024/02/27 21:13:01;;;;;;;16.10;8.48;;;;;;;5.48;60.53;100083.13;10471021;28;20040;-57
2024/02/27 21:18:04;;;;;;;15.82;8.20;;;;;;;5.54;60.60;100084.63;10500003;28;20174;-59
2024/02/27 21:23:06;;;;;;;16.27;7.53;;;;;;;5.44;60.82;100083.28;10502814;28;20082;-59
2024/02/27 21:28:08;;;;;;;15.00;7.55;;;;;;;5.37;60.80;100087.03;10516800;28;20036;-59
2024/02/27 21:33:11;;;;;;;16.63;7.97;;;;;;;5.34;60.81;100094.91;10516457;28;20113;-60
2024/02/27 21:38:19;;;;;;;16.35;7.93;;;;;;;5.29;61.07;100104.56;10499093;28;20097;-59
2024/02/27 21:43:22;;;;;;;17.55;8.82;;;;;;;5.34;60.86;100105.28;10514674;28;20042;-59
2024/02/27 21:48:25;;;;;;;18.30;8.23;;;;;;;5.33;60.88;100099.22;10515360;28;20043;-59
2024/02/27 21:53:30;;;;;;;14.05;7.20;;;;;;;5.31;60.78;100097.63;10514297;28;20048;-59
2024/02/27 21:58:32;;;;;;;18.42;9.10;;;;;;;5.26;60.92;100102.09;10515214;28;20170;-59
2024/02/27 22:03:34;;;;;;;16.30;8.25;;;;;;;5.22;60.83;100095.34;10512669;28;20040;-59
2024/02/27 22:08:37;;;;;;;20.10;7.68;;;;;;;5.14;61.15;100110.31;10514741;28;20078;-60
2024/02/27 22:13:39;;;;;;;15.00;7.20;;;;;;;4.98;61.31;100109.16;10512861;28;20051;-60
2024/02/27 22:18:41;;;;;;;13.80;6.75;;;;;;;4.89;61.51;100117.22;10513670;28;20112;-59
2024/02/27 22:23:44;;;;;;;16.88;8.32;;;;;;;4.79;61.43;100128.78;10511041;28;20036;-60
2024/02/27 22:28:46;;;;;;;15.45;7.60;;;;;;;4.72;61.45;100131.59;10495163;28;20413;-59
2024/02/27 22:33:49;;;;;;;16.10;8.45;;;;;;;4.59;61.67;100132.91;10495044;28;20469;-60
2024/02/27 22:38:51;;;;;;;15.43;7.95;;;;;;;4.53;61.79;100130.50;10511205;28;20491;-59
2024/02/27 22:43:55;;;;;;;17.55;8.35;;;;;;;4.46;61.93;100136.75;10510995;28;20272;-60
2024/02/27 22:48:57;;;;;;;15.63;8.55;;;;;;;4.41;62.17;100136.03;10508865;28;20125;-61
2024/02/27 22:53:59;;;;;;;17.65;9.27;;;;;;;4.43;62.10;100133.44;10510476;28;20403;-59
2024/02/27 22:59:02;;;;;;;21.20;10.07;;;;;;;4.38;62.18;100138.75;10525483;27;20043;-60
2024/02/27 23:04:05;;;;;;;21.70;10.32;;;;;;;4.32;62.45;100136.34;10510682;28;20591;-59
2024/02/27 23:09:07;;;;;;;17.80;9.63;;;;;;;4.31;62.43;100131.22;10511133;28;20052;-59
2024/02/27 23:14:09;;;;;;;18.27;8.93;;;;;;;4.22;62.40;100142.72;10492711;28;20078;-60
2024/02/27 23:19:11;;;;;;;17.58;8.68;;;;;;;4.08;62.40;100141.44;10510993;28;20457;-59
2024/02/27 23:24:13;;;;;;;16.23;8.23;;;;;;;3.99;62.68;100150.31;10508344;28;20054;-59
2024/02/27 23:29:15;;;;;;;21.08;8.65;;;;;;;3.88;62.87;100153.19;10509102;28;20048;-59
2024/02/27 23:34:19;;;;;;;16.98;8.98;;;;;;;3.75;62.97;100151.00;10492833;28;20522;-59